METAR Data
IDs: Format: Raw Decoded Include TAF

Data at: 1113 UTC 11 May 2021

METAR for:KBIJ (Blakely/Early Cnty, GA, US)
Text:KBIJ 111055Z AUTO 00000KT 5SM BR BKN031 OVC038 20/18 A3007 RMK AO2
Temperature: 20.0°C ( 68°F)
Dewpoint: 18.0°C ( 64°F) [RH = 88%]
Pressure (altimeter):30.07 inches Hg (1018.4 mb)
Winds:calm
Visibility: 5 sm ( 8 km)
Ceiling:3100 feet AGL
Clouds: broken clouds at 3100 feet AGL, overcast cloud deck at 3800 feet AGL
Weather:BR (mist)
QC Flag:automated observation with no human augmentation
Text:KBIJ 111035Z AUTO 00000KT 5SM BR BKN031 OVC041 20/18 A3006 RMK AO2
Temperature: 20.0°C ( 68°F)
Dewpoint: 18.0°C ( 64°F) [RH = 88%]
Pressure (altimeter):30.06 inches Hg (1018.0 mb)
Winds:calm
Visibility: 5 sm ( 8 km)
Ceiling:3100 feet AGL
Clouds: broken clouds at 3100 feet AGL, overcast cloud deck at 4100 feet AGL
Weather:BR (mist)
QC Flag:automated observation with no human augmentation
Text:KBIJ 111015Z AUTO 00000KT 7SM OVC033 20/18 A3005 RMK AO2
Temperature: 20.0°C ( 68°F)
Dewpoint: 18.0°C ( 64°F) [RH = 88%]
Pressure (altimeter):30.05 inches Hg (1017.7 mb)
Winds:calm
Visibility: 7 sm ( 11 km)
Ceiling:3300 feet AGL
Clouds: overcast cloud deck at 3300 feet AGL
QC Flag:automated observation with no human augmentation
Text:KBIJ 110955Z AUTO 00000KT 7SM OVC033 20/18 A3005 RMK AO2
Temperature: 20.0°C ( 68°F)
Dewpoint: 18.0°C ( 64°F) [RH = 88%]
Pressure (altimeter):30.05 inches Hg (1017.7 mb)
Winds:calm
Visibility: 7 sm ( 11 km)
Ceiling:3300 feet AGL
Clouds: overcast cloud deck at 3300 feet AGL
QC Flag:automated observation with no human augmentation
Text:KBIJ 110935Z AUTO 00000KT 5SM BR OVC033 20/18 A3005 RMK AO2
Temperature: 20.0°C ( 68°F)
Dewpoint: 18.0°C ( 64°F) [RH = 88%]
Pressure (altimeter):30.05 inches Hg (1017.7 mb)
Winds:calm
Visibility: 5 sm ( 8 km)
Ceiling:3300 feet AGL
Clouds: overcast cloud deck at 3300 feet AGL
Weather:BR (mist)
QC Flag:automated observation with no human augmentation
Text:KBIJ 110915Z AUTO 00000KT 5SM BR OVC035 20/18 A3004 RMK AO2
Temperature: 20.0°C ( 68°F)
Dewpoint: 18.0°C ( 64°F) [RH = 88%]
Pressure (altimeter):30.04 inches Hg (1017.4 mb)
Winds:calm
Visibility: 5 sm ( 8 km)
Ceiling:3500 feet AGL
Clouds: overcast cloud deck at 3500 feet AGL
Weather:BR (mist)
QC Flag:automated observation with no human augmentation
Text:KBIJ 110855Z AUTO 00000KT 7SM OVC037 20/18 A3004 RMK AO2
Temperature: 20.0°C ( 68°F)
Dewpoint: 18.0°C ( 64°F) [RH = 88%]
Pressure (altimeter):30.04 inches Hg (1017.4 mb)
Winds:calm
Visibility: 7 sm ( 11 km)
Ceiling:3700 feet AGL
Clouds: overcast cloud deck at 3700 feet AGL
QC Flag:automated observation with no human augmentation
Text:KBIJ 110835Z AUTO 00000KT 7SM BKN042 BKN050 OVC065 20/18 A3004 RMK AO2
Temperature: 20.0°C ( 68°F)
Dewpoint: 18.0°C ( 64°F) [RH = 88%]
Pressure (altimeter):30.04 inches Hg (1017.4 mb)
Winds:calm
Visibility: 7 sm ( 11 km)
Ceiling:4200 feet AGL
Clouds: broken clouds at 4200 feet AGL, broken clouds at 5000 feet AGL, overcast cloud deck at 6500 feet AGL
QC Flag:automated observation with no human augmentation
Text:KBIJ 110815Z AUTO 00000KT 7SM BKN050 BKN065 OVC070 20/18 A3003 RMK AO2
Temperature: 20.0°C ( 68°F)
Dewpoint: 18.0°C ( 64°F) [RH = 88%]
Pressure (altimeter):30.03 inches Hg (1017.0 mb)
Winds:calm
Visibility: 7 sm ( 11 km)
Ceiling:5000 feet AGL
Clouds: broken clouds at 5000 feet AGL, broken clouds at 6500 feet AGL, overcast cloud deck at 7000 feet AGL
QC Flag:automated observation with no human augmentation
Text:KBIJ 110755Z AUTO 00000KT 7SM SCT050 OVC065 20/18 A3004 RMK AO2
Temperature: 20.0°C ( 68°F)
Dewpoint: 18.0°C ( 64°F) [RH = 88%]
Pressure (altimeter):30.04 inches Hg (1017.4 mb)
Winds:calm
Visibility: 7 sm ( 11 km)
Ceiling:6500 feet AGL
Clouds: scattered clouds at 5000 feet AGL, overcast cloud deck at 6500 feet AGL
QC Flag:automated observation with no human augmentation
Text:KBIJ 110735Z AUTO 00000KT 7SM SCT050 OVC065 20/18 A3004 RMK AO2
Temperature: 20.0°C ( 68°F)
Dewpoint: 18.0°C ( 64°F) [RH = 88%]
Pressure (altimeter):30.04 inches Hg (1017.4 mb)
Winds:calm
Visibility: 7 sm ( 11 km)
Ceiling:6500 feet AGL
Clouds: scattered clouds at 5000 feet AGL, overcast cloud deck at 6500 feet AGL
QC Flag:automated observation with no human augmentation
Text:KBIJ 110715Z AUTO 00000KT 10SM BKN065 OVC070 20/18 A3004 RMK AO2
Temperature: 20.0°C ( 68°F)
Dewpoint: 18.0°C ( 64°F) [RH = 88%]
Pressure (altimeter):30.04 inches Hg (1017.4 mb)
Winds:calm
Visibility:10 or more sm (16+ km)
Ceiling:6500 feet AGL
Clouds: broken clouds at 6500 feet AGL, overcast cloud deck at 7000 feet AGL
QC Flag:automated observation with no human augmentation
Text:KBIJ 110655Z AUTO 00000KT 10SM SCT042 SCT050 OVC060 20/18 A3004 RMK AO2
Temperature: 20.0°C ( 68°F)
Dewpoint: 18.0°C ( 64°F) [RH = 88%]
Pressure (altimeter):30.04 inches Hg (1017.4 mb)
Winds:calm
Visibility:10 or more sm (16+ km)
Ceiling:6000 feet AGL
Clouds: scattered clouds at 4200 feet AGL, scattered clouds at 5000 feet AGL, overcast cloud deck at 6000 feet AGL
QC Flag:automated observation with no human augmentation
Text:KBIJ 110635Z AUTO 00000KT 10SM BKN042 BKN049 OVC060 20/18 A3005 RMK AO2
Temperature: 20.0°C ( 68°F)
Dewpoint: 18.0°C ( 64°F) [RH = 88%]
Pressure (altimeter):30.05 inches Hg (1017.7 mb)
Winds:calm
Visibility:10 or more sm (16+ km)
Ceiling:4200 feet AGL
Clouds: broken clouds at 4200 feet AGL, broken clouds at 4900 feet AGL, overcast cloud deck at 6000 feet AGL
QC Flag:automated observation with no human augmentation
Text:KBIJ 110615Z AUTO 00000KT 7SM BKN044 OVC060 20/18 A3005 RMK AO2
Temperature: 20.0°C ( 68°F)
Dewpoint: 18.0°C ( 64°F) [RH = 88%]
Pressure (altimeter):30.05 inches Hg (1017.7 mb)
Winds:calm
Visibility: 7 sm ( 11 km)
Ceiling:4400 feet AGL
Clouds: broken clouds at 4400 feet AGL, overcast cloud deck at 6000 feet AGL
QC Flag:automated observation with no human augmentation
Text:KBIJ 110555Z AUTO 00000KT 7SM BKN044 BKN050 OVC060 20/18 A3005 RMK AO2
Temperature: 20.0°C ( 68°F)
Dewpoint: 18.0°C ( 64°F) [RH = 88%]
Pressure (altimeter):30.05 inches Hg (1017.7 mb)
Winds:calm
Visibility: 7 sm ( 11 km)
Ceiling:4400 feet AGL
Clouds: broken clouds at 4400 feet AGL, broken clouds at 5000 feet AGL, overcast cloud deck at 6000 feet AGL
QC Flag:automated observation with no human augmentation
Text:KBIJ 110535Z AUTO 00000KT 7SM BKN046 OVC060 19/18 A3005 RMK AO2
Temperature: 19.0°C ( 66°F)
Dewpoint: 18.0°C ( 64°F) [RH = 94%]
Pressure (altimeter):30.05 inches Hg (1017.7 mb)
Winds:calm
Visibility: 7 sm ( 11 km)
Ceiling:4600 feet AGL
Clouds: broken clouds at 4600 feet AGL, overcast cloud deck at 6000 feet AGL
QC Flag:automated observation with no human augmentation
Text:KBIJ 110515Z AUTO 00000KT 7SM OVC060 19/18 A3006 RMK AO2
Temperature: 19.0°C ( 66°F)
Dewpoint: 18.0°C ( 64°F) [RH = 94%]
Pressure (altimeter):30.06 inches Hg (1018.0 mb)
Winds:calm
Visibility: 7 sm ( 11 km)
Ceiling:6000 feet AGL
Clouds: overcast cloud deck at 6000 feet AGL
QC Flag:automated observation with no human augmentation
Text:KBIJ 110455Z AUTO 00000KT 5SM BR SCT046 SCT060 SCT075 18/17 A3006 RMK AO2
Temperature: 18.0°C ( 64°F)
Dewpoint: 17.0°C ( 63°F) [RH = 94%]
Pressure (altimeter):30.06 inches Hg (1018.0 mb)
Winds:calm
Visibility: 5 sm ( 8 km)
Ceiling:at least 12,000 feet AGL
Clouds: scattered clouds at 4600 feet AGL, scattered clouds at 6000 feet AGL, scattered clouds at 7500 feet AGL
Weather:BR (mist)
QC Flag:automated observation with no human augmentation
Text:KBIJ 110435Z AUTO 00000KT 3/4SM BR BKN005 BKN046 BKN060 18/18 A3006 RMK AO2
Temperature: 18.0°C ( 64°F)
Dewpoint: 18.0°C ( 64°F) [RH = 100%]
Pressure (altimeter):30.06 inches Hg (1018.0 mb)
Winds:calm
Visibility: 0.75 sm ( 1.21 km)
Ceiling:500 feet AGL
Clouds: broken clouds at 500 feet AGL, broken clouds at 4600 feet AGL, broken clouds at 6000 feet AGL
Weather:BR (mist)
QC Flag:automated observation with no human augmentation
Text:KBIJ 110415Z AUTO 00000KT 5SM BR SCT055 SCT100 19/18 A3005 RMK AO2
Temperature: 19.0°C ( 66°F)
Dewpoint: 18.0°C ( 64°F) [RH = 94%]
Pressure (altimeter):30.05 inches Hg (1017.7 mb)
Winds:calm
Visibility: 5 sm ( 8 km)
Ceiling:at least 12,000 feet AGL
Clouds: scattered clouds at 5500 feet AGL, scattered clouds at 10000 feet AGL
Weather:BR (mist)
QC Flag:automated observation with no human augmentation
Text:KBIJ 110355Z AUTO 00000KT 1 1/4SM BR SCT055 BKN100 19/18 A3005 RMK AO2
Temperature: 19.0°C ( 66°F)
Dewpoint: 18.0°C ( 64°F) [RH = 94%]
Pressure (altimeter):30.05 inches Hg (1017.7 mb)
Winds:calm
Visibility: 1.25 sm ( 2.01 km)
Ceiling:10000 feet AGL
Clouds: scattered clouds at 5500 feet AGL, broken clouds at 10000 feet AGL
Weather:BR (mist)
QC Flag:automated observation with no human augmentation
Text:KBIJ 110335Z AUTO 00000KT 7SM SCT080 BKN100 18/18 A3006 RMK AO2
Temperature: 18.0°C ( 64°F)
Dewpoint: 18.0°C ( 64°F) [RH = 100%]
Pressure (altimeter):30.06 inches Hg (1018.0 mb)
Winds:calm
Visibility: 7 sm ( 11 km)
Ceiling:10000 feet AGL
Clouds: scattered clouds at 8000 feet AGL, broken clouds at 10000 feet AGL
QC Flag:automated observation with no human augmentation
Text:KBIJ 110315Z AUTO 00000KT 1 1/2SM BR BKN100 19/18 A3006 RMK AO2
Temperature: 19.0°C ( 66°F)
Dewpoint: 18.0°C ( 64°F) [RH = 94%]
Pressure (altimeter):30.06 inches Hg (1018.0 mb)
Winds:calm
Visibility: 1.50 sm ( 2.41 km)
Ceiling:10000 feet AGL
Clouds: broken clouds at 10000 feet AGL
Weather:BR (mist)
QC Flag:automated observation with no human augmentation
Text:KBIJ 110255Z AUTO 00000KT 7SM CLR 20/18 A3006 RMK AO2
Temperature: 20.0°C ( 68°F)
Dewpoint: 18.0°C ( 64°F) [RH = 88%]
Pressure (altimeter):30.06 inches Hg (1018.0 mb)
Winds:calm
Visibility: 7 sm ( 11 km)
Ceiling:at least 12,000 feet AGL
Clouds:sky clear below 12,000 feet AGL
QC Flag:automated observation with no human augmentation
Text:KBIJ 110235Z AUTO 00000KT 5SM BR CLR 20/19 A3006 RMK AO2
Temperature: 20.0°C ( 68°F)
Dewpoint: 19.0°C ( 66°F) [RH = 94%]
Pressure (altimeter):30.06 inches Hg (1018.0 mb)
Winds:calm
Visibility: 5 sm ( 8 km)
Ceiling:at least 12,000 feet AGL
Clouds:sky clear below 12,000 feet AGL
Weather:BR (mist)
QC Flag:automated observation with no human augmentation
Text:KBIJ 110215Z AUTO 00000KT 7SM SCT110 20/19 A3005 RMK AO2
Temperature: 20.0°C ( 68°F)
Dewpoint: 19.0°C ( 66°F) [RH = 94%]
Pressure (altimeter):30.05 inches Hg (1017.7 mb)
Winds:calm
Visibility: 7 sm ( 11 km)
Ceiling:at least 12,000 feet AGL
Clouds: scattered clouds at 11000 feet AGL
QC Flag:automated observation with no human augmentation
Text:KBIJ 110155Z AUTO 00000KT 7SM BKN110 21/19 A3005 RMK AO2
Temperature: 21.0°C ( 70°F)
Dewpoint: 19.0°C ( 66°F) [RH = 88%]
Pressure (altimeter):30.05 inches Hg (1017.7 mb)
Winds:calm
Visibility: 7 sm ( 11 km)
Ceiling:11000 feet AGL
Clouds: broken clouds at 11000 feet AGL
QC Flag:automated observation with no human augmentation
Text:KBIJ 110135Z AUTO 00000KT 10SM BKN120 21/19 A3003 RMK AO2
Temperature: 21.0°C ( 70°F)
Dewpoint: 19.0°C ( 66°F) [RH = 88%]
Pressure (altimeter):30.03 inches Hg (1017.0 mb)
Winds:calm
Visibility:10 or more sm (16+ km)
Ceiling:12000 feet AGL
Clouds: broken clouds at 12000 feet AGL
QC Flag:automated observation with no human augmentation
Text:KBIJ 110115Z AUTO 00000KT 10SM SCT110 21/20 A3003 RMK AO2
Temperature: 21.0°C ( 70°F)
Dewpoint: 20.0°C ( 68°F) [RH = 94%]
Pressure (altimeter):30.03 inches Hg (1017.0 mb)
Winds:calm
Visibility:10 or more sm (16+ km)
Ceiling:at least 12,000 feet AGL
Clouds: scattered clouds at 11000 feet AGL
QC Flag:automated observation with no human augmentation
Text:KBIJ 110055Z AUTO 00000KT 10SM BKN110 21/20 A3003 RMK AO2
Temperature: 21.0°C ( 70°F)
Dewpoint: 20.0°C ( 68°F) [RH = 94%]
Pressure (altimeter):30.03 inches Hg (1017.0 mb)
Winds:calm
Visibility:10 or more sm (16+ km)
Ceiling:11000 feet AGL
Clouds: broken clouds at 11000 feet AGL
QC Flag:automated observation with no human augmentation
Text:KBIJ 110035Z AUTO 00000KT 10SM BKN120 22/20 A3002 RMK AO2
Temperature: 22.0°C ( 72°F)
Dewpoint: 20.0°C ( 68°F) [RH = 88%]
Pressure (altimeter):30.02 inches Hg (1016.7 mb)
Winds:calm
Visibility:10 or more sm (16+ km)
Ceiling:12000 feet AGL
Clouds: broken clouds at 12000 feet AGL
QC Flag:automated observation with no human augmentation
Text:KBIJ 110015Z AUTO 00000KT 10SM OVC110 23/20 A3002 RMK AO2
Temperature: 23.0°C ( 73°F)
Dewpoint: 20.0°C ( 68°F) [RH = 83%]
Pressure (altimeter):30.02 inches Hg (1016.7 mb)
Winds:calm
Visibility:10 or more sm (16+ km)
Ceiling:11000 feet AGL
Clouds: overcast cloud deck at 11000 feet AGL
QC Flag:automated observation with no human augmentation
Text:KBIJ 102355Z AUTO 21003KT 10SM OVC110 23/20 A3002 RMK AO2
Temperature: 23.0°C ( 73°F)
Dewpoint: 20.0°C ( 68°F) [RH = 83%]
Pressure (altimeter):30.02 inches Hg (1016.7 mb)
Winds:from the SSW (210 degrees) at 3 MPH (3 knots; 1.5 m/s)
Visibility:10 or more sm (16+ km)
Ceiling:11000 feet AGL
Clouds: overcast cloud deck at 11000 feet AGL
QC Flag:automated observation with no human augmentation
Text:KBIJ 102335Z AUTO 23006KT 10SM SCT120 23/20 A3001 RMK AO2
Temperature: 23.0°C ( 73°F)
Dewpoint: 20.0°C ( 68°F) [RH = 83%]
Pressure (altimeter):30.01 inches Hg (1016.3 mb)
Winds:from the SW (230 degrees) at 7 MPH (6 knots; 3.1 m/s)
Visibility:10 or more sm (16+ km)
Ceiling:at least 12,000 feet AGL
Clouds: scattered clouds at 12000 feet AGL
QC Flag:automated observation with no human augmentation
Text:KBIJ 102315Z AUTO 21007KT 10SM SCT016 SCT110 24/20 A3001 RMK AO2
Temperature: 24.0°C ( 75°F)
Dewpoint: 20.0°C ( 68°F) [RH = 78%]
Pressure (altimeter):30.01 inches Hg (1016.3 mb)
Winds:from the SSW (210 degrees) at 8 MPH (7 knots; 3.6 m/s)
Visibility:10 or more sm (16+ km)
Ceiling:at least 12,000 feet AGL
Clouds: scattered clouds at 1600 feet AGL, scattered clouds at 11000 feet AGL
QC Flag:automated observation with no human augmentation
Text:KBIJ 102255Z AUTO 21006KT 10SM BKN110 24/20 A3001 RMK AO2
Temperature: 24.0°C ( 75°F)
Dewpoint: 20.0°C ( 68°F) [RH = 78%]
Pressure (altimeter):30.01 inches Hg (1016.3 mb)
Winds:from the SSW (210 degrees) at 7 MPH (6 knots; 3.1 m/s)
Visibility:10 or more sm (16+ km)
Ceiling:11000 feet AGL
Clouds: broken clouds at 11000 feet AGL
QC Flag:automated observation with no human augmentation
Text:KBIJ 102235Z AUTO 22008KT 10SM SCT020 SCT060 BKN120 24/20 A3001 RMK AO2
Temperature: 24.0°C ( 75°F)
Dewpoint: 20.0°C ( 68°F) [RH = 78%]
Pressure (altimeter):30.01 inches Hg (1016.3 mb)
Winds:from the SW (220 degrees) at 9 MPH (8 knots; 4.1 m/s)
Visibility:10 or more sm (16+ km)
Ceiling:12000 feet AGL
Clouds: scattered clouds at 2000 feet AGL, scattered clouds at 6000 feet AGL, broken clouds at 12000 feet AGL
QC Flag:automated observation with no human augmentation
Text:KBIJ 102215Z AUTO 21006KT 10SM BKN018 BKN023 OVC120 24/20 A3001 RMK AO2
Temperature: 24.0°C ( 75°F)
Dewpoint: 20.0°C ( 68°F) [RH = 78%]
Pressure (altimeter):30.01 inches Hg (1016.3 mb)
Winds:from the SSW (210 degrees) at 7 MPH (6 knots; 3.1 m/s)
Visibility:10 or more sm (16+ km)
Ceiling:1800 feet AGL
Clouds: broken clouds at 1800 feet AGL, broken clouds at 2300 feet AGL, overcast cloud deck at 12000 feet AGL
QC Flag:automated observation with no human augmentation
Text:KBIJ 102155Z AUTO 21003KT 10SM SCT026 SCT039 BKN070 23/20 A3001 RMK AO2
Temperature: 23.0°C ( 73°F)
Dewpoint: 20.0°C ( 68°F) [RH = 83%]
Pressure (altimeter):30.01 inches Hg (1016.3 mb)
Winds:from the SSW (210 degrees) at 3 MPH (3 knots; 1.5 m/s)
Visibility:10 or more sm (16+ km)
Ceiling:7000 feet AGL
Clouds: scattered clouds at 2600 feet AGL, scattered clouds at 3900 feet AGL, broken clouds at 7000 feet AGL
QC Flag:automated observation with no human augmentation
Text:KBIJ 102135Z AUTO 00000KT 7SM -RA SCT025 BKN038 OVC070 22/20 A3001 RMK AO2
Temperature: 22.0°C ( 72°F)
Dewpoint: 20.0°C ( 68°F) [RH = 88%]
Pressure (altimeter):30.01 inches Hg (1016.3 mb)
Winds:calm
Visibility: 7 sm ( 11 km)
Ceiling:3800 feet AGL
Clouds: scattered clouds at 2500 feet AGL, broken clouds at 3800 feet AGL, overcast cloud deck at 7000 feet AGL
Weather:-RA (light rain)
QC Flag:automated observation with no human augmentation
Text:KBIJ 102115Z AUTO 22004KT 10SM RA SCT023 BKN028 OVC070 23/20 A3001 RMK AO2
Temperature: 23.0°C ( 73°F)
Dewpoint: 20.0°C ( 68°F) [RH = 83%]
Pressure (altimeter):30.01 inches Hg (1016.3 mb)
Winds:from the SW (220 degrees) at 5 MPH (4 knots; 2.1 m/s)
Visibility:10 or more sm (16+ km)
Ceiling:2800 feet AGL
Clouds: scattered clouds at 2300 feet AGL, broken clouds at 2800 feet AGL, overcast cloud deck at 7000 feet AGL
Weather:RA (moderate rain)
QC Flag:automated observation with no human augmentation
Text:KBIJ 102055Z AUTO 23004KT 10SM SCT023 BKN028 OVC042 23/19 A3001 RMK AO2
Temperature: 23.0°C ( 73°F)
Dewpoint: 19.0°C ( 66°F) [RH = 78%]
Pressure (altimeter):30.01 inches Hg (1016.3 mb)
Winds:from the SW (230 degrees) at 5 MPH (4 knots; 2.1 m/s)
Visibility:10 or more sm (16+ km)
Ceiling:2800 feet AGL
Clouds: scattered clouds at 2300 feet AGL, broken clouds at 2800 feet AGL, overcast cloud deck at 4200 feet AGL
QC Flag:automated observation with no human augmentation
Text:KBIJ 102035Z AUTO 23005KT 10SM SCT023 BKN043 OVC050 24/18 A3001 RMK AO2
Temperature: 24.0°C ( 75°F)
Dewpoint: 18.0°C ( 64°F) [RH = 69%]
Pressure (altimeter):30.01 inches Hg (1016.3 mb)
Winds:from the SW (230 degrees) at 6 MPH (5 knots; 2.6 m/s)
Visibility:10 or more sm (16+ km)
Ceiling:4300 feet AGL
Clouds: scattered clouds at 2300 feet AGL, broken clouds at 4300 feet AGL, overcast cloud deck at 5000 feet AGL
QC Flag:automated observation with no human augmentation
Text:KBIJ 102015Z AUTO 24006KT 10SM SCT023 SCT040 OVC060 24/18 A3001 RMK AO2
Temperature: 24.0°C ( 75°F)
Dewpoint: 18.0°C ( 64°F) [RH = 69%]
Pressure (altimeter):30.01 inches Hg (1016.3 mb)
Winds:from the WSW (240 degrees) at 7 MPH (6 knots; 3.1 m/s)
Visibility:10 or more sm (16+ km)
Ceiling:6000 feet AGL
Clouds: scattered clouds at 2300 feet AGL, scattered clouds at 4000 feet AGL, overcast cloud deck at 6000 feet AGL
QC Flag:automated observation with no human augmentation
Text:KBIJ 101955Z AUTO 23008G16KT 10SM SCT024 SCT040 BKN060 24/18 A3001 RMK AO2
Temperature: 24.0°C ( 75°F)
Dewpoint: 18.0°C ( 64°F) [RH = 69%]
Pressure (altimeter):30.01 inches Hg (1016.3 mb)
Winds:from the SW (230 degrees) at 9 MPH (8 knots; 4.1 m/s) gusting to 18 MPH (16 knots; 8.2 m/s)
Visibility:10 or more sm (16+ km)
Ceiling:6000 feet AGL
Clouds: scattered clouds at 2400 feet AGL, scattered clouds at 4000 feet AGL, broken clouds at 6000 feet AGL
QC Flag:automated observation with no human augmentation
Text:KBIJ 101935Z AUTO 24010KT 10SM BKN024 OVC030 25/19 A3003 RMK AO2
Temperature: 25.0°C ( 77°F)
Dewpoint: 19.0°C ( 66°F) [RH = 69%]
Pressure (altimeter):30.03 inches Hg (1017.0 mb)
Winds:from the WSW (240 degrees) at 12 MPH (10 knots; 5.1 m/s)
Visibility:10 or more sm (16+ km)
Ceiling:2400 feet AGL
Clouds: broken clouds at 2400 feet AGL, overcast cloud deck at 3000 feet AGL
QC Flag:automated observation with no human augmentation
Text:KBIJ 101915Z AUTO 24011G16KT 10SM SCT022 BKN032 BKN047 25/19 A3003 RMK AO2
Temperature: 25.0°C ( 77°F)
Dewpoint: 19.0°C ( 66°F) [RH = 69%]
Pressure (altimeter):30.03 inches Hg (1017.0 mb)
Winds:from the WSW (240 degrees) at 13 MPH (11 knots; 5.7 m/s) gusting to 18 MPH (16 knots; 8.2 m/s)
Visibility:10 or more sm (16+ km)
Ceiling:3200 feet AGL
Clouds: scattered clouds at 2200 feet AGL, broken clouds at 3200 feet AGL, broken clouds at 4700 feet AGL
QC Flag:automated observation with no human augmentation
Text:KBIJ 101855Z AUTO 24008KT 10SM SCT020 25/20 A3003 RMK AO2 LTG DSNT S
Temperature: 25.0°C ( 77°F)
Dewpoint: 20.0°C ( 68°F) [RH = 74%]
Pressure (altimeter):30.03 inches Hg (1017.0 mb)
Winds:from the WSW (240 degrees) at 9 MPH (8 knots; 4.1 m/s)
Visibility:10 or more sm (16+ km)
Ceiling:at least 12,000 feet AGL
Clouds: scattered clouds at 2000 feet AGL
QC Flag:automated observation with no human augmentation
Text:KBIJ 101835Z AUTO 22012G16KT 10SM CLR 24/19 A3003 RMK AO2
Temperature: 24.0°C ( 75°F)
Dewpoint: 19.0°C ( 66°F) [RH = 74%]
Pressure (altimeter):30.03 inches Hg (1017.0 mb)
Winds:from the SW (220 degrees) at 14 MPH (12 knots; 6.2 m/s) gusting to 18 MPH (16 knots; 8.2 m/s)
Visibility:10 or more sm (16+ km)
Ceiling:at least 12,000 feet AGL
Clouds:sky clear below 12,000 feet AGL
QC Flag:automated observation with no human augmentation
Text:KBIJ 101815Z AUTO 22011G17KT 10SM SCT050 SCT070 BKN110 24/20 A3004 RMK AO2 LTG DSNT S
Temperature: 24.0°C ( 75°F)
Dewpoint: 20.0°C ( 68°F) [RH = 78%]
Pressure (altimeter):30.04 inches Hg (1017.4 mb)
Winds:from the SW (220 degrees) at 13 MPH (11 knots; 5.7 m/s) gusting to 20 MPH (17 knots; 8.7 m/s)
Visibility:10 or more sm (16+ km)
Ceiling:11000 feet AGL
Clouds: scattered clouds at 5000 feet AGL, scattered clouds at 7000 feet AGL, broken clouds at 11000 feet AGL
QC Flag:automated observation with no human augmentation
Text:KBIJ 101755Z AUTO 23008G14KT 10SM BKN060 OVC075 23/19 A3004 RMK AO2
Temperature: 23.0°C ( 73°F)
Dewpoint: 19.0°C ( 66°F) [RH = 78%]
Pressure (altimeter):30.04 inches Hg (1017.4 mb)
Winds:from the SW (230 degrees) at 9 MPH (8 knots; 4.1 m/s) gusting to 16 MPH (14 knots; 7.2 m/s)
Visibility:10 or more sm (16+ km)
Ceiling:6000 feet AGL
Clouds: broken clouds at 6000 feet AGL, overcast cloud deck at 7500 feet AGL
QC Flag:automated observation with no human augmentation
Text:KBIJ 101735Z AUTO 23009G15KT 10SM BKN060 OVC075 23/18 A3005 RMK AO2
Temperature: 23.0°C ( 73°F)
Dewpoint: 18.0°C ( 64°F) [RH = 73%]
Pressure (altimeter):30.05 inches Hg (1017.7 mb)
Winds:from the SW (230 degrees) at 10 MPH (9 knots; 4.6 m/s) gusting to 17 MPH (15 knots; 7.7 m/s)
Visibility:10 or more sm (16+ km)
Ceiling:6000 feet AGL
Clouds: broken clouds at 6000 feet AGL, overcast cloud deck at 7500 feet AGL
QC Flag:automated observation with no human augmentation
Text:KBIJ 101715Z AUTO 24007KT 10SM SCT060 BKN075 OVC090 22/19 A3005 RMK AO2
Temperature: 22.0°C ( 72°F)
Dewpoint: 19.0°C ( 66°F) [RH = 83%]
Pressure (altimeter):30.05 inches Hg (1017.7 mb)
Winds:from the WSW (240 degrees) at 8 MPH (7 knots; 3.6 m/s)
Visibility:10 or more sm (16+ km)
Ceiling:7500 feet AGL
Clouds: scattered clouds at 6000 feet AGL, broken clouds at 7500 feet AGL, overcast cloud deck at 9000 feet AGL
QC Flag:automated observation with no human augmentation
Text:KBIJ 101655Z AUTO 25006KT 10SM SCT065 SCT075 OVC090 23/19 A3005 RMK AO2
Temperature: 23.0°C ( 73°F)
Dewpoint: 19.0°C ( 66°F) [RH = 78%]
Pressure (altimeter):30.05 inches Hg (1017.7 mb)
Winds:from the WSW (250 degrees) at 7 MPH (6 knots; 3.1 m/s)
Visibility:10 or more sm (16+ km)
Ceiling:9000 feet AGL
Clouds: scattered clouds at 6500 feet AGL, scattered clouds at 7500 feet AGL, overcast cloud deck at 9000 feet AGL
QC Flag:automated observation with no human augmentation
Text:KBIJ 101635Z AUTO 22006KT 10SM SCT009 BKN080 OVC120 23/19 A3005 RMK AO2
Temperature: 23.0°C ( 73°F)
Dewpoint: 19.0°C ( 66°F) [RH = 78%]
Pressure (altimeter):30.05 inches Hg (1017.7 mb)
Winds:from the SW (220 degrees) at 7 MPH (6 knots; 3.1 m/s)
Visibility:10 or more sm (16+ km)
Ceiling:8000 feet AGL
Clouds: scattered clouds at 900 feet AGL, broken clouds at 8000 feet AGL, overcast cloud deck at 12000 feet AGL
QC Flag:automated observation with no human augmentation
Text:KBIJ 101615Z AUTO 22007KT 10SM SCT009 OVC120 22/19 A3005 RMK AO2
Temperature: 22.0°C ( 72°F)
Dewpoint: 19.0°C ( 66°F) [RH = 83%]
Pressure (altimeter):30.05 inches Hg (1017.7 mb)
Winds:from the SW (220 degrees) at 8 MPH (7 knots; 3.6 m/s)
Visibility:10 or more sm (16+ km)
Ceiling:12000 feet AGL
Clouds: scattered clouds at 900 feet AGL, overcast cloud deck at 12000 feet AGL
QC Flag:automated observation with no human augmentation
Text:KBIJ 101555Z AUTO 18005KT 10SM SCT007 OVC110 21/19 A3005 RMK AO2
Temperature: 21.0°C ( 70°F)
Dewpoint: 19.0°C ( 66°F) [RH = 88%]
Pressure (altimeter):30.05 inches Hg (1017.7 mb)
Winds:from the S (180 degrees) at 6 MPH (5 knots; 2.6 m/s)
Visibility:10 or more sm (16+ km)
Ceiling:11000 feet AGL
Clouds: scattered clouds at 700 feet AGL, overcast cloud deck at 11000 feet AGL
QC Flag:automated observation with no human augmentation
Text:KBIJ 101535Z AUTO 21005KT 10SM BKN100 21/19 A3005 RMK AO2
Temperature: 21.0°C ( 70°F)
Dewpoint: 19.0°C ( 66°F) [RH = 88%]
Pressure (altimeter):30.05 inches Hg (1017.7 mb)
Winds:from the SSW (210 degrees) at 6 MPH (5 knots; 2.6 m/s)
Visibility:10 or more sm (16+ km)
Ceiling:10000 feet AGL
Clouds: broken clouds at 10000 feet AGL
QC Flag:automated observation with no human augmentation
Text:KBIJ 101515Z AUTO 18003KT 10SM SCT003 SCT012 OVC100 20/18 A3005 RMK AO2 LTG DSNT E
Temperature: 20.0°C ( 68°F)
Dewpoint: 18.0°C ( 64°F) [RH = 88%]
Pressure (altimeter):30.05 inches Hg (1017.7 mb)
Winds:from the S (180 degrees) at 3 MPH (3 knots; 1.5 m/s)
Visibility:10 or more sm (16+ km)
Ceiling:10000 feet AGL
Clouds: scattered clouds at 300 feet AGL, scattered clouds at 1200 feet AGL, overcast cloud deck at 10000 feet AGL
QC Flag:automated observation with no human augmentation
Text:KBIJ 101455Z AUTO 20006KT 7SM -DZ SCT003 BKN010 OVC100 20/19 A3006 RMK AO2
Temperature: 20.0°C ( 68°F)
Dewpoint: 19.0°C ( 66°F) [RH = 94%]
Pressure (altimeter):30.06 inches Hg (1018.0 mb)
Winds:from the SSW (200 degrees) at 7 MPH (6 knots; 3.1 m/s)
Visibility: 7 sm ( 11 km)
Ceiling:1000 feet AGL
Clouds: scattered clouds at 300 feet AGL, broken clouds at 1000 feet AGL, overcast cloud deck at 10000 feet AGL
Weather:-DZ (light drizzle)
QC Flag:automated observation with no human augmentation
Text:KBIJ 101435Z AUTO 18003KT 5SM RA BKN006 BKN014 OVC095 20/19 A3005 RMK AO2 LTG DSNT S
Temperature: 20.0°C ( 68°F)
Dewpoint: 19.0°C ( 66°F) [RH = 94%]
Pressure (altimeter):30.05 inches Hg (1017.7 mb)
Winds:from the S (180 degrees) at 3 MPH (3 knots; 1.5 m/s)
Visibility: 5 sm ( 8 km)
Ceiling:600 feet AGL
Clouds: broken clouds at 600 feet AGL, broken clouds at 1400 feet AGL, overcast cloud deck at 9500 feet AGL
Weather:RA (moderate rain)
QC Flag:automated observation with no human augmentation
Text:KBIJ 101415Z AUTO 00000KT 2 1/2SM RA SCT010 BKN080 OVC100 20/19 A3006 RMK AO2
Temperature: 20.0°C ( 68°F)
Dewpoint: 19.0°C ( 66°F) [RH = 94%]
Pressure (altimeter):30.06 inches Hg (1018.0 mb)
Winds:calm
Visibility: 2.50 sm ( 4.02 km)
Ceiling:8000 feet AGL
Clouds: scattered clouds at 1000 feet AGL, broken clouds at 8000 feet AGL, overcast cloud deck at 10000 feet AGL
Weather:RA (moderate rain)
QC Flag:automated observation with no human augmentation
Text:KBIJ 101355Z AUTO 15004KT 3SM TSRA OVC100 20/19 A3005 RMK AO2 LTG DSNT SW
Temperature: 20.0°C ( 68°F)
Dewpoint: 19.0°C ( 66°F) [RH = 94%]
Pressure (altimeter):30.05 inches Hg (1017.7 mb)
Winds:from the SSE (150 degrees) at 5 MPH (4 knots; 2.1 m/s)
Visibility: 3 sm ( 5 km)
Ceiling:10000 feet AGL
Clouds: overcast cloud deck at 10000 feet AGL
Weather:TSRA (rain associated with thunderstorm(s))
QC Flag:automated observation with no human augmentation
Text:KBIJ 101335Z AUTO 00000KT 4SM +RA SCT024 SCT050 OVC090 20/19 A3005 RMK AO2 LTG DSNT S THRU W
Temperature: 20.0°C ( 68°F)
Dewpoint: 19.0°C ( 66°F) [RH = 94%]
Pressure (altimeter):30.05 inches Hg (1017.7 mb)
Winds:calm
Visibility: 4 sm ( 6 km)
Ceiling:9000 feet AGL
Clouds: scattered clouds at 2400 feet AGL, scattered clouds at 5000 feet AGL, overcast cloud deck at 9000 feet AGL
Weather:+RA (heavy rain)
QC Flag:automated observation with no human augmentation
Text:KBIJ 101315Z AUTO 00000KT 10SM RA BKN090 OVC110 21/18 A3003 RMK AO2 LTG DSNT SW
Temperature: 21.0°C ( 70°F)
Dewpoint: 18.0°C ( 64°F) [RH = 83%]
Pressure (altimeter):30.03 inches Hg (1017.0 mb)
Winds:calm
Visibility:10 or more sm (16+ km)
Ceiling:9000 feet AGL
Clouds: broken clouds at 9000 feet AGL, overcast cloud deck at 11000 feet AGL
Weather:RA (moderate rain)
QC Flag:automated observation with no human augmentation
Text:KBIJ 101255Z AUTO 00000KT 7SM VCTS BKN080 OVC100 20/18 A3003 RMK AO2 LTG DSNT SW AND W
Temperature: 20.0°C ( 68°F)
Dewpoint: 18.0°C ( 64°F) [RH = 88%]
Pressure (altimeter):30.03 inches Hg (1017.0 mb)
Winds:calm
Visibility: 7 sm ( 11 km)
Ceiling:8000 feet AGL
Clouds: broken clouds at 8000 feet AGL, overcast cloud deck at 10000 feet AGL
Weather:VCTS (thunderstorm in vicinity)
QC Flag:automated observation with no human augmentation
Text:KBIJ 101235Z AUTO 00000KT 7SM VCTS SCT010 BKN075 20/18 A3002 RMK AO2 LTG DSNT W
Temperature: 20.0°C ( 68°F)
Dewpoint: 18.0°C ( 64°F) [RH = 88%]
Pressure (altimeter):30.02 inches Hg (1016.7 mb)
Winds:calm
Visibility: 7 sm ( 11 km)
Ceiling:7500 feet AGL
Clouds: scattered clouds at 1000 feet AGL, broken clouds at 7500 feet AGL
Weather:VCTS (thunderstorm in vicinity)
QC Flag:automated observation with no human augmentation
Text:KBIJ 101215Z AUTO 00000KT 7SM SCT010 BKN075 BKN120 20/18 A3002 RMK AO2 LTG DSNT W
Temperature: 20.0°C ( 68°F)
Dewpoint: 18.0°C ( 64°F) [RH = 88%]
Pressure (altimeter):30.02 inches Hg (1016.7 mb)
Winds:calm
Visibility: 7 sm ( 11 km)
Ceiling:7500 feet AGL
Clouds: scattered clouds at 1000 feet AGL, broken clouds at 7500 feet AGL, broken clouds at 12000 feet AGL
QC Flag:automated observation with no human augmentation
Text:KBIJ 101155Z AUTO 00000KT 7SM SCT075 SCT120 19/18 A3002 RMK AO2 LTG DSNT W
Temperature: 19.0°C ( 66°F)
Dewpoint: 18.0°C ( 64°F) [RH = 94%]
Pressure (altimeter):30.02 inches Hg (1016.7 mb)
Winds:calm
Visibility: 7 sm ( 11 km)
Ceiling:at least 12,000 feet AGL
Clouds: scattered clouds at 7500 feet AGL, scattered clouds at 12000 feet AGL
QC Flag:automated observation with no human augmentation
Text:KBIJ 101135Z AUTO 00000KT 7SM SCT075 SCT085 19/18 A3001 RMK AO2 LTG DSNT SW
Temperature: 19.0°C ( 66°F)
Dewpoint: 18.0°C ( 64°F) [RH = 94%]
Pressure (altimeter):30.01 inches Hg (1016.3 mb)
Winds:calm
Visibility: 7 sm ( 11 km)
Ceiling:at least 12,000 feet AGL
Clouds: scattered clouds at 7500 feet AGL, scattered clouds at 8500 feet AGL
QC Flag:automated observation with no human augmentation
Text:KBIJ 101115Z AUTO 00000KT 5SM BR BKN075 OVC085 18/17 A3001 RMK AO2
Temperature: 18.0°C ( 64°F)
Dewpoint: 17.0°C ( 63°F) [RH = 94%]
Pressure (altimeter):30.01 inches Hg (1016.3 mb)
Winds:calm
Visibility: 5 sm ( 8 km)
Ceiling:7500 feet AGL
Clouds: broken clouds at 7500 feet AGL, overcast cloud deck at 8500 feet AGL
Weather:BR (mist)
QC Flag:automated observation with no human augmentation
Text:KBIJ 101055Z AUTO 00000KT 7SM BKN075 BKN085 18/17 A3001 RMK AO2
Temperature: 18.0°C ( 64°F)
Dewpoint: 17.0°C ( 63°F) [RH = 94%]
Pressure (altimeter):30.01 inches Hg (1016.3 mb)
Winds:calm
Visibility: 7 sm ( 11 km)
Ceiling:7500 feet AGL
Clouds: broken clouds at 7500 feet AGL, broken clouds at 8500 feet AGL
QC Flag:automated observation with no human augmentation
Text:KBIJ 101035Z AUTO 00000KT 7SM BKN075 BKN085 BKN110 18/17 A3000 RMK AO2
Temperature: 18.0°C ( 64°F)
Dewpoint: 17.0°C ( 63°F) [RH = 94%]
Pressure (altimeter):30.00 inches Hg (1016.0 mb)
Winds:calm
Visibility: 7 sm ( 11 km)
Ceiling:7500 feet AGL
Clouds: broken clouds at 7500 feet AGL, broken clouds at 8500 feet AGL, broken clouds at 11000 feet AGL
QC Flag:automated observation with no human augmentation
Text:KBIJ 101015Z AUTO 00000KT 7SM BKN011 OVC075 19/18 A3001 RMK AO2
Temperature: 19.0°C ( 66°F)
Dewpoint: 18.0°C ( 64°F) [RH = 94%]
Pressure (altimeter):30.01 inches Hg (1016.3 mb)
Winds:calm
Visibility: 7 sm ( 11 km)
Ceiling:1100 feet AGL
Clouds: broken clouds at 1100 feet AGL, overcast cloud deck at 7500 feet AGL
QC Flag:automated observation with no human augmentation
Text:KBIJ 100955Z AUTO 00000KT 7SM BKN011 BKN075 BKN085 18/17 A3000 RMK AO2
Temperature: 18.0°C ( 64°F)
Dewpoint: 17.0°C ( 63°F) [RH = 94%]
Pressure (altimeter):30.00 inches Hg (1016.0 mb)
Winds:calm
Visibility: 7 sm ( 11 km)
Ceiling:1100 feet AGL
Clouds: broken clouds at 1100 feet AGL, broken clouds at 7500 feet AGL, broken clouds at 8500 feet AGL
QC Flag:automated observation with no human augmentation
Text:KBIJ 100935Z AUTO 00000KT 7SM SCT085 18/17 A3000 RMK AO2
Temperature: 18.0°C ( 64°F)
Dewpoint: 17.0°C ( 63°F) [RH = 94%]
Pressure (altimeter):30.00 inches Hg (1016.0 mb)
Winds:calm
Visibility: 7 sm ( 11 km)
Ceiling:at least 12,000 feet AGL
Clouds: scattered clouds at 8500 feet AGL
QC Flag:automated observation with no human augmentation
Text:KBIJ 100915Z AUTO 00000KT 7SM CLR 18/17 A2999 RMK AO2
Temperature: 18.0°C ( 64°F)
Dewpoint: 17.0°C ( 63°F) [RH = 94%]
Pressure (altimeter):29.99 inches Hg (1015.7 mb)
Winds:calm
Visibility: 7 sm ( 11 km)
Ceiling:at least 12,000 feet AGL
Clouds:sky clear below 12,000 feet AGL
QC Flag:automated observation with no human augmentation
Text:KBIJ 100855Z AUTO 00000KT 2 1/2SM BR CLR 18/17 A2999 RMK AO2
Temperature: 18.0°C ( 64°F)
Dewpoint: 17.0°C ( 63°F) [RH = 94%]
Pressure (altimeter):29.99 inches Hg (1015.7 mb)
Winds:calm
Visibility: 2.50 sm ( 4.02 km)
Ceiling:at least 12,000 feet AGL
Clouds:sky clear below 12,000 feet AGL
Weather:BR (mist)
QC Flag:automated observation with no human augmentation
Text:KBIJ 100835Z AUTO 00000KT 7SM SCT024 18/17 A2999 RMK AO2
Temperature: 18.0°C ( 64°F)
Dewpoint: 17.0°C ( 63°F) [RH = 94%]
Pressure (altimeter):29.99 inches Hg (1015.7 mb)
Winds:calm
Visibility: 7 sm ( 11 km)
Ceiling:at least 12,000 feet AGL
Clouds: scattered clouds at 2400 feet AGL
QC Flag:automated observation with no human augmentation
Text:KBIJ 100815Z AUTO 00000KT 7SM SCT024 BKN031 19/18 A3000 RMK AO2
Temperature: 19.0°C ( 66°F)
Dewpoint: 18.0°C ( 64°F) [RH = 94%]
Pressure (altimeter):30.00 inches Hg (1016.0 mb)
Winds:calm
Visibility: 7 sm ( 11 km)
Ceiling:3100 feet AGL
Clouds: scattered clouds at 2400 feet AGL, broken clouds at 3100 feet AGL
QC Flag:automated observation with no human augmentation
Text:KBIJ 100755Z AUTO 00000KT 10SM SCT031 20/18 A3000 RMK AO2
Temperature: 20.0°C ( 68°F)
Dewpoint: 18.0°C ( 64°F) [RH = 88%]
Pressure (altimeter):30.00 inches Hg (1016.0 mb)
Winds:calm
Visibility:10 or more sm (16+ km)
Ceiling:at least 12,000 feet AGL
Clouds: scattered clouds at 3100 feet AGL
QC Flag:automated observation with no human augmentation
Text:KBIJ 100735Z AUTO 00000KT 10SM CLR 20/18 A3000 RMK AO2
Temperature: 20.0°C ( 68°F)
Dewpoint: 18.0°C ( 64°F) [RH = 88%]
Pressure (altimeter):30.00 inches Hg (1016.0 mb)
Winds:calm
Visibility:10 or more sm (16+ km)
Ceiling:at least 12,000 feet AGL
Clouds:sky clear below 12,000 feet AGL
QC Flag:automated observation with no human augmentation
Text:KBIJ 100715Z AUTO 00000KT 10SM CLR 20/18 A3000 RMK AO2
Temperature: 20.0°C ( 68°F)
Dewpoint: 18.0°C ( 64°F) [RH = 88%]
Pressure (altimeter):30.00 inches Hg (1016.0 mb)
Winds:calm
Visibility:10 or more sm (16+ km)
Ceiling:at least 12,000 feet AGL
Clouds:sky clear below 12,000 feet AGL
QC Flag:automated observation with no human augmentation
Text:KBIJ 100655Z AUTO 00000KT 10SM CLR 20/18 A2999 RMK AO2
Temperature: 20.0°C ( 68°F)
Dewpoint: 18.0°C ( 64°F) [RH = 88%]
Pressure (altimeter):29.99 inches Hg (1015.7 mb)
Winds:calm
Visibility:10 or more sm (16+ km)
Ceiling:at least 12,000 feet AGL
Clouds:sky clear below 12,000 feet AGL
QC Flag:automated observation with no human augmentation
Text:KBIJ 100635Z AUTO 22004KT 10SM CLR 21/18 A2999 RMK AO2
Temperature: 21.0°C ( 70°F)
Dewpoint: 18.0°C ( 64°F) [RH = 83%]
Pressure (altimeter):29.99 inches Hg (1015.7 mb)
Winds:from the SW (220 degrees) at 5 MPH (4 knots; 2.1 m/s)
Visibility:10 or more sm (16+ km)
Ceiling:at least 12,000 feet AGL
Clouds:sky clear below 12,000 feet AGL
QC Flag:automated observation with no human augmentation
Text:KBIJ 100615Z AUTO 22003KT 10SM CLR 21/18 A2999 RMK AO2
Temperature: 21.0°C ( 70°F)
Dewpoint: 18.0°C ( 64°F) [RH = 83%]
Pressure (altimeter):29.99 inches Hg (1015.7 mb)
Winds:from the SW (220 degrees) at 3 MPH (3 knots; 1.5 m/s)
Visibility:10 or more sm (16+ km)
Ceiling:at least 12,000 feet AGL
Clouds:sky clear below 12,000 feet AGL
QC Flag:automated observation with no human augmentation
Text:KBIJ 100555Z AUTO 21005KT 10SM CLR 21/18 A2999 RMK AO2
Temperature: 21.0°C ( 70°F)
Dewpoint: 18.0°C ( 64°F) [RH = 83%]
Pressure (altimeter):29.99 inches Hg (1015.7 mb)
Winds:from the SSW (210 degrees) at 6 MPH (5 knots; 2.6 m/s)
Visibility:10 or more sm (16+ km)
Ceiling:at least 12,000 feet AGL
Clouds:sky clear below 12,000 feet AGL
QC Flag:automated observation with no human augmentation
Text:KBIJ 100535Z AUTO 20005KT 10SM CLR 21/18 A3000 RMK AO2
Temperature: 21.0°C ( 70°F)
Dewpoint: 18.0°C ( 64°F) [RH = 83%]
Pressure (altimeter):30.00 inches Hg (1016.0 mb)
Winds:from the SSW (200 degrees) at 6 MPH (5 knots; 2.6 m/s)
Visibility:10 or more sm (16+ km)
Ceiling:at least 12,000 feet AGL
Clouds:sky clear below 12,000 feet AGL
QC Flag:automated observation with no human augmentation
Text:KBIJ 100515Z AUTO 21003KT 10SM CLR 21/18 A3002 RMK AO2
Temperature: 21.0°C ( 70°F)
Dewpoint: 18.0°C ( 64°F) [RH = 83%]
Pressure (altimeter):30.02 inches Hg (1016.7 mb)
Winds:from the SSW (210 degrees) at 3 MPH (3 knots; 1.5 m/s)
Visibility:10 or more sm (16+ km)
Ceiling:at least 12,000 feet AGL
Clouds:sky clear below 12,000 feet AGL
QC Flag:automated observation with no human augmentation
Text:KBIJ 100455Z AUTO 20004KT 10SM CLR 21/18 A3002 RMK AO2
Temperature: 21.0°C ( 70°F)
Dewpoint: 18.0°C ( 64°F) [RH = 83%]
Pressure (altimeter):30.02 inches Hg (1016.7 mb)
Winds:from the SSW (200 degrees) at 5 MPH (4 knots; 2.1 m/s)
Visibility:10 or more sm (16+ km)
Ceiling:at least 12,000 feet AGL
Clouds:sky clear below 12,000 feet AGL
QC Flag:automated observation with no human augmentation
Text:KBIJ 100435Z AUTO 21003KT 10SM SCT034 SCT042 21/17 A3002 RMK AO2
Temperature: 21.0°C ( 70°F)
Dewpoint: 17.0°C ( 63°F) [RH = 78%]
Pressure (altimeter):30.02 inches Hg (1016.7 mb)
Winds:from the SSW (210 degrees) at 3 MPH (3 knots; 1.5 m/s)
Visibility:10 or more sm (16+ km)
Ceiling:at least 12,000 feet AGL
Clouds: scattered clouds at 3400 feet AGL, scattered clouds at 4200 feet AGL
QC Flag:automated observation with no human augmentation
Text:KBIJ 100415Z AUTO 22003KT 10SM SCT034 SCT042 22/17 A3002 RMK AO2
Temperature: 22.0°C ( 72°F)
Dewpoint: 17.0°C ( 63°F) [RH = 73%]
Pressure (altimeter):30.02 inches Hg (1016.7 mb)
Winds:from the SW (220 degrees) at 3 MPH (3 knots; 1.5 m/s)
Visibility:10 or more sm (16+ km)
Ceiling:at least 12,000 feet AGL
Clouds: scattered clouds at 3400 feet AGL, scattered clouds at 4200 feet AGL
QC Flag:automated observation with no human augmentation
Text:KBIJ 100355Z AUTO 23004KT 10SM SCT044 22/17 A3002 RMK AO2
Temperature: 22.0°C ( 72°F)
Dewpoint: 17.0°C ( 63°F) [RH = 73%]
Pressure (altimeter):30.02 inches Hg (1016.7 mb)
Winds:from the SW (230 degrees) at 5 MPH (4 knots; 2.1 m/s)
Visibility:10 or more sm (16+ km)
Ceiling:at least 12,000 feet AGL
Clouds: scattered clouds at 4400 feet AGL
QC Flag:automated observation with no human augmentation
Text:KBIJ 100335Z AUTO 23005KT 10SM SCT044 22/17 A3002 RMK AO2
Temperature: 22.0°C ( 72°F)
Dewpoint: 17.0°C ( 63°F) [RH = 73%]
Pressure (altimeter):30.02 inches Hg (1016.7 mb)
Winds:from the SW (230 degrees) at 6 MPH (5 knots; 2.6 m/s)
Visibility:10 or more sm (16+ km)
Ceiling:at least 12,000 feet AGL
Clouds: scattered clouds at 4400 feet AGL
QC Flag:automated observation with no human augmentation
Text:KBIJ 100315Z AUTO 21004KT 10SM CLR 22/17 A3001 RMK AO2
Temperature: 22.0°C ( 72°F)
Dewpoint: 17.0°C ( 63°F) [RH = 73%]
Pressure (altimeter):30.01 inches Hg (1016.3 mb)
Winds:from the SSW (210 degrees) at 5 MPH (4 knots; 2.1 m/s)
Visibility:10 or more sm (16+ km)
Ceiling:at least 12,000 feet AGL
Clouds:sky clear below 12,000 feet AGL
QC Flag:automated observation with no human augmentation
Text:KBIJ 100255Z AUTO 21004KT 10SM CLR 22/17 A3000 RMK AO2
Temperature: 22.0°C ( 72°F)
Dewpoint: 17.0°C ( 63°F) [RH = 73%]
Pressure (altimeter):30.00 inches Hg (1016.0 mb)
Winds:from the SSW (210 degrees) at 5 MPH (4 knots; 2.1 m/s)
Visibility:10 or more sm (16+ km)
Ceiling:at least 12,000 feet AGL
Clouds:sky clear below 12,000 feet AGL
QC Flag:automated observation with no human augmentation
Text:KBIJ 100235Z AUTO 21004KT 10SM SCT038 23/17 A3000 RMK AO2
Temperature: 23.0°C ( 73°F)
Dewpoint: 17.0°C ( 63°F) [RH = 69%]
Pressure (altimeter):30.00 inches Hg (1016.0 mb)
Winds:from the SSW (210 degrees) at 5 MPH (4 knots; 2.1 m/s)
Visibility:10 or more sm (16+ km)
Ceiling:at least 12,000 feet AGL
Clouds: scattered clouds at 3800 feet AGL
QC Flag:automated observation with no human augmentation
Text:KBIJ 100215Z AUTO 21008KT 10SM SCT038 BKN044 23/17 A2999 RMK AO2
Temperature: 23.0°C ( 73°F)
Dewpoint: 17.0°C ( 63°F) [RH = 69%]
Pressure (altimeter):29.99 inches Hg (1015.7 mb)
Winds:from the SSW (210 degrees) at 9 MPH (8 knots; 4.1 m/s)
Visibility:10 or more sm (16+ km)
Ceiling:4400 feet AGL
Clouds: scattered clouds at 3800 feet AGL, broken clouds at 4400 feet AGL
QC Flag:automated observation with no human augmentation
Text:KBIJ 100155Z AUTO 22006KT 10SM SCT038 SCT046 23/17 A2999 RMK AO2
Temperature: 23.0°C ( 73°F)
Dewpoint: 17.0°C ( 63°F) [RH = 69%]
Pressure (altimeter):29.99 inches Hg (1015.7 mb)
Winds:from the SW (220 degrees) at 7 MPH (6 knots; 3.1 m/s)
Visibility:10 or more sm (16+ km)
Ceiling:at least 12,000 feet AGL
Clouds: scattered clouds at 3800 feet AGL, scattered clouds at 4600 feet AGL
QC Flag:automated observation with no human augmentation
Text:KBIJ 100135Z AUTO 22008KT 10SM SCT040 SCT046 24/17 A2999 RMK AO2
Temperature: 24.0°C ( 75°F)
Dewpoint: 17.0°C ( 63°F) [RH = 65%]
Pressure (altimeter):29.99 inches Hg (1015.7 mb)
Winds:from the SW (220 degrees) at 9 MPH (8 knots; 4.1 m/s)
Visibility:10 or more sm (16+ km)
Ceiling:at least 12,000 feet AGL
Clouds: scattered clouds at 4000 feet AGL, scattered clouds at 4600 feet AGL
QC Flag:automated observation with no human augmentation
Text:KBIJ 100115Z AUTO 22005KT 10SM SCT044 24/17 A2998 RMK AO2
Temperature: 24.0°C ( 75°F)
Dewpoint: 17.0°C ( 63°F) [RH = 65%]
Pressure (altimeter):29.98 inches Hg (1015.3 mb)
Winds:from the SW (220 degrees) at 6 MPH (5 knots; 2.6 m/s)
Visibility:10 or more sm (16+ km)
Ceiling:at least 12,000 feet AGL
Clouds: scattered clouds at 4400 feet AGL
QC Flag:automated observation with no human augmentation
Text:KBIJ 100055Z AUTO 22007KT 10SM BKN042 25/17 A2998 RMK AO2
Temperature: 25.0°C ( 77°F)
Dewpoint: 17.0°C ( 63°F) [RH = 61%]
Pressure (altimeter):29.98 inches Hg (1015.3 mb)
Winds:from the SW (220 degrees) at 8 MPH (7 knots; 3.6 m/s)
Visibility:10 or more sm (16+ km)
Ceiling:4200 feet AGL
Clouds: broken clouds at 4200 feet AGL
QC Flag:automated observation with no human augmentation
Text:KBIJ 100035Z AUTO 22006KT 10SM SCT044 25/17 A2997 RMK AO2
Temperature: 25.0°C ( 77°F)
Dewpoint: 17.0°C ( 63°F) [RH = 61%]
Pressure (altimeter):29.97 inches Hg (1015.0 mb)
Winds:from the SW (220 degrees) at 7 MPH (6 knots; 3.1 m/s)
Visibility:10 or more sm (16+ km)
Ceiling:at least 12,000 feet AGL
Clouds: scattered clouds at 4400 feet AGL
QC Flag:automated observation with no human augmentation
Text:KBIJ 100015Z AUTO 20008KT 10SM SCT044 26/17 A2997 RMK AO2
Temperature: 26.0°C ( 79°F)
Dewpoint: 17.0°C ( 63°F) [RH = 58%]
Pressure (altimeter):29.97 inches Hg (1015.0 mb)
Winds:from the SSW (200 degrees) at 9 MPH (8 knots; 4.1 m/s)
Visibility:10 or more sm (16+ km)
Ceiling:at least 12,000 feet AGL
Clouds: scattered clouds at 4400 feet AGL
QC Flag:automated observation with no human augmentation
Text:KBIJ 092355Z AUTO 21009KT 10SM SCT050 26/17 A2997 RMK AO2
Temperature: 26.0°C ( 79°F)
Dewpoint: 17.0°C ( 63°F) [RH = 58%]
Pressure (altimeter):29.97 inches Hg (1015.0 mb)
Winds:from the SSW (210 degrees) at 10 MPH (9 knots; 4.6 m/s)
Visibility:10 or more sm (16+ km)
Ceiling:at least 12,000 feet AGL
Clouds: scattered clouds at 5000 feet AGL
QC Flag:automated observation with no human augmentation
Text:KBIJ 092335Z AUTO 21009KT 10SM SCT048 SCT055 27/17 A2996 RMK AO2
Temperature: 27.0°C ( 81°F)
Dewpoint: 17.0°C ( 63°F) [RH = 54%]
Pressure (altimeter):29.96 inches Hg (1014.6 mb)
Winds:from the SSW (210 degrees) at 10 MPH (9 knots; 4.6 m/s)
Visibility:10 or more sm (16+ km)
Ceiling:at least 12,000 feet AGL
Clouds: scattered clouds at 4800 feet AGL, scattered clouds at 5500 feet AGL
QC Flag:automated observation with no human augmentation
Text:KBIJ 092315Z AUTO 21007KT 10SM SCT048 27/17 A2996 RMK AO2
Temperature: 27.0°C ( 81°F)
Dewpoint: 17.0°C ( 63°F) [RH = 54%]
Pressure (altimeter):29.96 inches Hg (1014.6 mb)
Winds:from the SSW (210 degrees) at 8 MPH (7 knots; 3.6 m/s)
Visibility:10 or more sm (16+ km)
Ceiling:at least 12,000 feet AGL
Clouds: scattered clouds at 4800 feet AGL
QC Flag:automated observation with no human augmentation